createdAt,value
2022-11-05T00:00:05.378Z,19.00
2022-11-05T00:02:51.023Z,20.37
2022-11-05T00:05:36.286Z,20.13
2022-11-05T00:08:24.059Z,20.37
2022-11-05T00:10:51.056Z,20.60
2022-11-05T00:13:36.289Z,20.67
2022-11-05T00:16:41.271Z,18.73
2022-11-05T00:19:08.960Z,18.27
2022-11-05T00:21:57.056Z,17.93
2022-11-05T00:24:42.785Z,17.83
2022-11-05T00:27:09.860Z,16.60
2022-11-05T00:29:36.697Z,16.70
2022-11-05T00:32:03.899Z,16.70
2022-11-05T00:34:30.718Z,15.83
2022-11-05T00:36:57.557Z,15.90
2022-11-05T00:39:24.402Z,18.07
2022-11-05T00:42:09.821Z,20.03
2022-11-05T00:44:55.072Z,20.87
2022-11-05T00:47:40.438Z,21.33
2022-11-05T00:50:07.779Z,21.90
2022-11-05T00:52:53.194Z,20.87
2022-11-05T00:55:20.032Z,22.63
2022-11-05T00:57:46.875Z,23.10
2022-11-05T01:00:14.412Z,22.70
2022-11-05T01:02:41.388Z,22.90
2022-11-05T01:05:08.652Z,23.47
2022-11-05T01:07:35.511Z,24.17
2022-11-05T01:10:02.552Z,24.17
2022-11-05T01:12:30.682Z,25.60
2022-11-05T01:14:57.879Z,25.70
2022-11-05T01:17:24.709Z,25.73
2022-11-05T01:19:51.450Z,26.83
2022-11-05T01:22:18.341Z,23.97
2022-11-05T01:24:45.194Z,24.70
2022-11-05T01:27:12.048Z,24.97
2022-11-05T01:29:38.942Z,27.23
2022-11-05T01:32:05.902Z,25.87
2022-11-05T01:34:32.651Z,26.63
2022-11-05T01:36:59.640Z,26.60
2022-11-05T01:39:26.455Z,26.77
2022-11-05T01:41:53.301Z,25.50
2022-11-05T01:45:08.026Z,28.00
2022-11-05T01:47:57.920Z,24.10
2022-11-05T01:50:55.146Z,24.90
2022-11-05T01:53:45.271Z,23.43
2022-11-05T01:56:18.427Z,22.63
2022-11-05T01:58:52.752Z,23.67
2022-11-05T02:01:19.933Z,22.23
2022-11-05T02:03:50.133Z,22.93
2022-11-05T02:06:18.475Z,24.70
2022-11-05T02:09:03.397Z,22.90
2022-11-05T02:11:30.552Z,23.23
2022-11-05T02:14:00.650Z,21.10
2022-11-05T02:17:08.749Z,22.40
2022-11-05T02:20:20.363Z,20.40
2022-11-05T02:23:21.773Z,20.97
2022-11-05T02:25:48.571Z,20.60
2022-11-05T02:28:42.122Z,19.87
2022-11-05T02:31:38.205Z,21.27
2022-11-05T02:34:23.492Z,23.50
2022-11-05T02:37:12.482Z,24.13
2022-11-05T02:40:00.359Z,21.17
2022-11-05T02:43:06.546Z,22.63
2022-11-05T02:46:02.948Z,18.70
2022-11-05T02:48:56.541Z,21.17
2022-11-05T02:51:26.053Z,20.60
2022-11-05T02:54:11.425Z,22.63
2022-11-05T02:56:43.266Z,20.87
2022-11-05T02:59:10.041Z,23.43
2022-11-05T03:01:38.863Z,26.63
2022-11-05T03:04:10.810Z,21.03
2022-11-05T03:07:35.583Z,20.87
2022-11-05T03:10:25.419Z,25.27
2022-11-05T03:13:07.268Z,23.13
2022-11-05T03:15:52.990Z,20.17
2022-11-05T03:18:30.374Z,22.73
2022-11-05T03:21:09.221Z,18.63
2022-11-05T03:24:02.119Z,24.17
2022-11-05T03:26:31.019Z,23.13
2022-11-05T03:29:06.616Z,23.40
2022-11-05T03:31:35.167Z,23.53
2022-11-05T03:34:05.401Z,26.80
2022-11-05T03:36:39.591Z,24.70
2022-11-05T03:39:13.839Z,24.27
2022-11-05T03:41:44.538Z,24.90
2022-11-05T03:44:15.873Z,24.57
2022-11-05T03:46:48.010Z,26.20
2022-11-05T03:49:21.429Z,23.70
2022-11-05T03:52:14.727Z,25.07
2022-11-05T03:54:41.500Z,24.07
2022-11-05T03:57:20.591Z,23.97
2022-11-05T03:59:50.154Z,23.73
2022-11-05T04:02:19.987Z,21.27
2022-11-05T04:04:47.039Z,23.83
2022-11-05T04:07:32.263Z,23.60
2022-11-05T04:10:17.435Z,29.20
2022-11-05T04:13:02.962Z,26.00
2022-11-05T04:15:30.077Z,25.77
2022-11-05T04:17:58.994Z,25.37
2022-11-05T04:20:44.932Z,25.97
2022-11-05T04:23:30.431Z,23.63
2022-11-05T04:25:57.192Z,25.57
2022-11-05T04:28:43.843Z,24.97
2022-11-05T04:31:10.602Z,22.97
2022-11-05T04:33:37.473Z,24.00
2022-11-05T04:36:04.452Z,24.80
2022-11-05T04:38:31.193Z,23.17
2022-11-05T04:41:15.815Z,22.97
2022-11-05T04:43:43.092Z,21.73
2022-11-05T04:46:10.068Z,23.80
2022-11-05T04:48:37.555Z,24.03
2022-11-05T04:51:05.152Z,23.03
2022-11-05T04:53:32.008Z,23.00
2022-11-05T04:56:13.144Z,23.90
2022-11-05T04:58:41.485Z,24.50
2022-11-05T05:01:16.596Z,22.40
2022-11-05T05:03:43.741Z,22.60
2022-11-05T05:06:10.872Z,24.23
2022-11-05T05:08:37.775Z,23.00
2022-11-05T05:11:06.363Z,22.83
2022-11-05T05:13:33.341Z,22.43
2022-11-05T05:16:00.555Z,23.73
2022-11-05T05:18:27.573Z,23.97
2022-11-05T05:21:16.692Z,25.37
2022-11-05T05:23:43.888Z,22.77
2022-11-05T05:26:10.879Z,25.53
2022-11-05T05:28:37.878Z,24.60
2022-11-05T05:31:04.944Z,25.20
2022-11-05T05:33:31.710Z,24.13
2022-11-05T05:35:59.672Z,23.43
2022-11-05T05:38:26.416Z,25.27
2022-11-05T05:40:57.021Z,23.47
2022-11-05T05:43:23.772Z,23.73
2022-11-05T05:45:50.898Z,22.63
2022-11-05T05:48:17.625Z,23.07
2022-11-05T05:50:44.613Z,20.20
2022-11-05T05:53:11.664Z,23.37
2022-11-05T05:55:38.697Z,23.07
2022-11-05T05:58:05.684Z,22.93
2022-11-05T06:00:32.502Z,22.10
2022-11-05T06:02:59.349Z,21.63
2022-11-05T06:05:26.262Z,22.30
2022-11-05T06:07:57.179Z,19.37
2022-11-05T06:10:24.801Z,22.13
2022-11-05T06:12:51.809Z,22.80
2022-11-05T06:15:18.561Z,23.00
2022-11-05T06:17:45.758Z,23.80
2022-11-05T06:20:13.266Z,22.90
2022-11-05T06:22:40.411Z,23.63
2022-11-05T06:25:07.923Z,22.23
2022-11-05T06:27:36.110Z,22.23
2022-11-05T06:30:04.763Z,24.60
2022-11-05T06:32:31.743Z,23.93
2022-11-05T06:34:58.549Z,20.53
2022-11-05T06:37:25.526Z,22.90
2022-11-05T06:39:52.292Z,24.10
2022-11-05T06:42:19.531Z,23.10
2022-11-05T06:44:46.723Z,22.93
2022-11-05T06:47:13.467Z,22.47
2022-11-05T06:49:40.167Z,21.87
2022-11-05T06:52:06.916Z,23.00
2022-11-05T06:54:33.629Z,20.60
2022-11-05T06:57:00.345Z,23.27
2022-11-05T06:59:27.080Z,23.30
2022-11-05T07:01:53.831Z,23.87
2022-11-05T07:04:20.558Z,23.43
2022-11-05T07:06:47.352Z,23.00
2022-11-05T07:09:14.142Z,24.50
2022-11-05T07:11:40.910Z,23.63
2022-11-05T07:14:07.966Z,23.60
2022-11-05T07:16:34.824Z,26.53
2022-11-05T07:19:01.567Z,25.33
2022-11-05T07:21:28.850Z,24.83
2022-11-05T07:23:55.653Z,26.07
2022-11-05T07:26:22.391Z,25.17
2022-11-05T07:28:49.270Z,25.60
2022-11-05T07:31:16.082Z,26.07
2022-11-05T07:33:42.866Z,21.80
2022-11-05T07:36:09.895Z,24.23
2022-11-05T07:38:36.656Z,24.43
2022-11-05T07:41:03.907Z,21.37
2022-11-05T07:43:30.756Z,23.37
2022-11-05T07:45:57.619Z,24.13
2022-11-05T07:48:24.389Z,23.07
2022-11-05T07:50:53.080Z,24.10
2022-11-05T07:53:22.688Z,23.43
2022-11-05T07:55:49.446Z,21.83
2022-11-05T07:58:16.257Z,22.63
2022-11-05T08:00:43.191Z,24.17
2022-11-05T08:03:18.217Z,23.37
2022-11-05T08:05:47.381Z,22.97
2022-11-05T08:08:18.040Z,23.93
2022-11-05T08:10:45.211Z,24.87
2022-11-05T08:13:13.427Z,26.33
2022-11-05T08:15:41.093Z,29.23
2022-11-05T08:18:16.358Z,27.97
2022-11-05T08:20:44.354Z,29.90
2022-11-05T08:23:11.754Z,33.23
2022-11-05T08:25:39.722Z,32.30
2022-11-05T08:28:10.482Z,34.43
2022-11-05T08:30:37.438Z,32.63
2022-11-05T08:33:07.216Z,33.53
2022-11-05T08:35:36.190Z,33.73
2022-11-05T08:38:06.038Z,33.23
2022-11-05T08:40:34.979Z,34.13
2022-11-05T08:43:03.379Z,34.20
2022-11-05T08:45:31.004Z,33.47
2022-11-05T08:48:05.670Z,33.10
2022-11-05T08:50:33.415Z,32.67
2022-11-05T08:53:00.291Z,31.47
2022-11-05T08:55:27.404Z,31.87
2022-11-05T08:58:02.164Z,30.73
2022-11-05T09:00:30.711Z,30.27
2022-11-05T09:03:01.627Z,28.80
2022-11-05T09:05:30.068Z,29.07
2022-11-05T09:08:01.368Z,28.37
2022-11-05T09:10:28.757Z,30.47
2022-11-05T09:12:55.793Z,30.10
2022-11-05T09:15:23.418Z,30.03
2022-11-05T09:17:50.726Z,30.07
2022-11-05T09:20:17.588Z,30.13
2022-11-05T09:22:44.405Z,28.73
2022-11-05T09:25:11.331Z,27.50
2022-11-05T09:27:38.284Z,27.97
2022-11-05T09:30:05.639Z,26.27
2022-11-05T09:32:32.845Z,27.87
2022-11-05T09:35:02.354Z,25.90
2022-11-05T09:37:29.472Z,26.50
2022-11-05T09:39:56.587Z,27.40
2022-11-05T09:42:29.981Z,26.60
2022-11-05T09:45:03.551Z,24.83
2022-11-05T09:47:35.783Z,23.17
2022-11-05T09:50:08.859Z,24.53
2022-11-05T09:52:35.799Z,22.13
2022-11-05T09:55:18.728Z,20.83
2022-11-05T09:58:01.278Z,21.50
2022-11-05T10:00:29.875Z,21.83
2022-11-05T10:03:06.527Z,19.63
2022-11-05T10:05:34.521Z,19.73
2022-11-05T10:08:22.367Z,18.93
2022-11-05T10:11:14.140Z,19.73
2022-11-05T10:13:43.905Z,17.63
2022-11-05T10:16:31.281Z,17.40
2022-11-05T10:19:15.061Z,17.63
2022-11-05T10:22:05.430Z,16.20
2022-11-05T10:24:30.244Z,15.63
2022-11-05T10:26:58.506Z,14.77
2022-11-05T10:29:29.607Z,13.93
2022-11-05T10:32:01.055Z,13.63
2022-11-05T10:34:34.299Z,14.70
2022-11-05T10:37:01.388Z,13.67
2022-11-05T10:39:30.718Z,10.73
2022-11-05T10:42:03.179Z,10.83
2022-11-05T10:44:41.486Z,10.20
2022-11-05T10:47:29.288Z,9.53
2022-11-05T10:49:59.690Z,10.27
2022-11-05T10:52:33.834Z,8.93
2022-11-05T10:55:04.210Z,8.97
2022-11-05T10:57:30.957Z,9.13
2022-11-05T11:00:16.300Z,9.90
2022-11-05T11:02:45.982Z,9.10
2022-11-05T11:05:39.951Z,9.23
2022-11-05T11:08:12.776Z,9.53
2022-11-05T11:10:54.796Z,9.90
2022-11-05T11:13:28.058Z,9.63
2022-11-05T11:15:55.680Z,8.53
2022-11-05T11:18:40.312Z,8.77
2022-11-05T11:21:16.820Z,9.10
2022-11-05T11:24:06.543Z,7.63
2022-11-05T11:26:37.454Z,8.17
2022-11-05T11:29:25.573Z,7.87
2022-11-05T11:31:57.294Z,7.47
2022-11-05T11:34:34.548Z,6.70
2022-11-05T11:37:18.252Z,7.63
2022-11-05T11:39:54.183Z,6.90
2022-11-05T11:42:40.071Z,7.13
2022-11-05T11:45:17.874Z,6.87
2022-11-05T11:47:47.557Z,6.17
2022-11-05T11:50:35.961Z,6.30
2022-11-05T11:53:20.747Z,5.67
2022-11-05T11:55:59.581Z,5.53
2022-11-05T11:58:40.740Z,5.50
2022-11-05T12:01:44.565Z,5.70
2022-11-05T12:04:30.025Z,4.80
2022-11-05T12:07:02.792Z,4.93
2022-11-05T12:09:48.090Z,4.87
2022-11-05T12:12:16.880Z,5.30
2022-11-05T12:14:49.864Z,5.23
2022-11-05T12:17:29.625Z,5.70
2022-11-05T12:20:02.097Z,4.57
2022-11-05T12:22:44.249Z,5.13
2022-11-05T12:25:23.871Z,4.93
2022-11-05T12:28:08.903Z,4.40
2022-11-05T12:30:48.019Z,4.37
2022-11-05T12:33:29.803Z,4.50
2022-11-05T12:36:03.138Z,4.30
2022-11-05T12:39:20.740Z,4.10
2022-11-05T12:42:06.429Z,5.10
2022-11-05T12:44:38.822Z,4.67
2022-11-05T12:47:24.481Z,4.70
2022-11-05T12:50:36.468Z,5.10
2022-11-05T12:53:22.023Z,5.27
2022-11-05T12:55:50.973Z,5.83
2022-11-05T12:58:37.177Z,5.57
2022-11-05T13:01:16.022Z,4.73
2022-11-05T13:03:55.944Z,4.53
2022-11-05T13:06:29.965Z,5.10
2022-11-05T13:09:22.684Z,4.87
2022-11-05T13:11:57.462Z,5.27
2022-11-05T13:14:35.508Z,5.40
2022-11-05T13:17:24.992Z,5.17
2022-11-05T13:20:02.202Z,4.63
2022-11-05T13:22:49.207Z,4.70
2022-11-05T13:25:25.430Z,5.30
2022-11-05T13:28:04.408Z,4.70
2022-11-05T13:30:43.605Z,4.20
2022-11-05T13:33:13.661Z,4.23
2022-11-05T13:36:15.288Z,4.30
2022-11-05T13:39:02.611Z,3.87
2022-11-05T13:42:03.656Z,4.07
2022-11-05T13:44:51.510Z,3.80
2022-11-05T13:47:42.987Z,4.53
2022-11-05T13:50:19.447Z,5.20
2022-11-05T13:52:52.353Z,4.70
2022-11-05T13:55:54.055Z,4.40
2022-11-05T13:58:59.255Z,4.50
2022-11-05T14:01:48.282Z,4.03
2022-11-05T14:04:25.353Z,4.03
2022-11-05T14:06:52.522Z,3.60
2022-11-05T14:09:25.181Z,4.00
2022-11-05T14:11:56.507Z,4.07
2022-11-05T14:14:27.653Z,3.63
2022-11-05T14:17:09.448Z,4.30
2022-11-05T14:19:56.252Z,4.23
2022-11-05T14:22:49.302Z,4.13
2022-11-05T14:25:19.148Z,4.27
2022-11-05T14:27:49.280Z,4.40
2022-11-05T14:30:45.839Z,4.07
2022-11-05T14:33:24.338Z,4.17
2022-11-05T14:35:52.497Z,4.70
2022-11-05T14:38:23.764Z,4.80
2022-11-05T14:41:00.266Z,4.13
2022-11-05T14:43:29.534Z,4.73
2022-11-05T14:46:03.542Z,4.40
2022-11-05T14:48:50.282Z,5.33
2022-11-05T14:51:31.167Z,4.03
2022-11-05T14:54:08.458Z,5.13
2022-11-05T14:56:51.777Z,4.70
2022-11-05T14:59:24.609Z,4.10
2022-11-05T15:01:56.605Z,4.57
2022-11-05T15:04:40.411Z,4.30
2022-11-05T15:07:07.132Z,4.27
2022-11-05T15:09:53.601Z,4.53
2022-11-05T15:12:43.148Z,4.27
2022-11-05T15:15:38.575Z,4.67
2022-11-05T15:18:24.206Z,4.33
2022-11-05T15:20:55.569Z,4.70
2022-11-05T15:23:26.715Z,5.10
2022-11-05T15:26:24.065Z,4.47
2022-11-05T15:28:55.617Z,4.27
2022-11-05T15:31:36.526Z,4.20
2022-11-05T15:34:31.917Z,4.33
2022-11-05T15:37:03.696Z,4.23
2022-11-05T15:39:41.401Z,4.20
2022-11-05T15:42:16.801Z,4.47
2022-11-05T15:44:46.577Z,3.70
2022-11-05T15:47:34.359Z,4.80
2022-11-05T15:50:20.781Z,4.10
2022-11-05T15:52:53.264Z,4.90
2022-11-05T15:55:26.044Z,4.33
2022-11-05T15:57:59.390Z,4.33
2022-11-05T16:00:29.749Z,4.03
2022-11-05T16:03:00.648Z,4.67
2022-11-05T16:05:31.354Z,4.80
2022-11-05T16:08:00.199Z,5.10
2022-11-05T16:10:30.731Z,4.50
2022-11-05T16:12:57.548Z,4.33
2022-11-05T16:15:29.464Z,5.00
2022-11-05T16:17:59.031Z,4.60
2022-11-05T16:20:33.137Z,4.90
2022-11-05T16:23:06.434Z,4.37
2022-11-05T16:25:39.498Z,4.53
2022-11-05T16:28:27.552Z,5.20
2022-11-05T16:30:57.302Z,5.07
2022-11-05T16:33:26.172Z,4.70
2022-11-05T16:35:53.209Z,5.10
2022-11-05T16:38:20.531Z,4.70
2022-11-05T16:40:47.527Z,4.80
2022-11-05T16:43:23.433Z,5.00
2022-11-05T16:45:53.678Z,4.97
2022-11-05T16:48:20.802Z,5.27
2022-11-05T16:50:47.746Z,5.50
2022-11-05T16:53:14.579Z,5.07
2022-11-05T16:55:43.070Z,5.23
2022-11-05T16:58:23.347Z,5.70
2022-11-05T17:00:51.600Z,5.40
2022-11-05T17:03:19.107Z,5.50
2022-11-05T17:05:45.917Z,5.70
2022-11-05T17:08:13.002Z,4.60
2022-11-05T17:10:40.050Z,4.53
2022-11-05T17:13:06.906Z,4.67
2022-11-05T17:15:37.381Z,4.57
2022-11-05T17:18:05.801Z,4.73
2022-11-05T17:20:41.131Z,3.87
2022-11-05T17:23:15.187Z,4.03
2022-11-05T17:25:44.422Z,4.07
2022-11-05T17:28:12.152Z,4.37
2022-11-05T17:30:41.726Z,4.43
2022-11-05T17:33:12.970Z,4.00
2022-11-05T17:35:40.696Z,4.40
2022-11-05T17:38:07.941Z,4.13
2022-11-05T17:40:35.706Z,4.30
2022-11-05T17:43:02.730Z,4.00
2022-11-05T17:45:29.787Z,4.00
2022-11-05T17:47:56.516Z,3.90
2022-11-05T17:50:23.528Z,3.83
2022-11-05T17:52:50.355Z,4.13
2022-11-05T17:55:17.610Z,4.53
2022-11-05T17:57:49.389Z,3.90
2022-11-05T18:00:19.906Z,4.13
2022-11-05T18:02:48.573Z,4.87
2022-11-05T18:05:17.322Z,3.90
2022-11-05T18:07:44.813Z,4.07
2022-11-05T18:10:12.297Z,4.30
2022-11-05T18:12:39.941Z,3.67
2022-11-05T18:15:08.022Z,3.50
2022-11-05T18:17:35.085Z,3.73
2022-11-05T18:20:02.214Z,3.53
2022-11-05T18:22:29.555Z,3.60
2022-11-05T18:24:56.406Z,3.70
2022-11-05T18:27:27.570Z,3.00
2022-11-05T18:29:54.772Z,3.30
2022-11-05T18:32:22.092Z,3.33
2022-11-05T18:34:48.933Z,3.43
2022-11-05T18:37:15.609Z,3.00
2022-11-05T18:39:43.106Z,3.00
2022-11-05T18:42:10.734Z,2.93
2022-11-05T18:44:39.554Z,3.00
2022-11-05T18:47:06.925Z,3.07
2022-11-05T18:49:36.156Z,2.87
2022-11-05T18:52:04.352Z,2.97
2022-11-05T18:54:31.380Z,2.87
2022-11-05T18:56:58.372Z,3.03
2022-11-05T18:59:40.684Z,2.83
2022-11-05T19:02:08.721Z,2.70
2022-11-05T19:04:37.085Z,3.40
2022-11-05T19:07:05.704Z,3.20
2022-11-05T19:09:34.287Z,3.70
2022-11-05T19:12:02.138Z,3.30
2022-11-05T19:14:30.371Z,3.60
2022-11-05T19:17:01.633Z,3.97
2022-11-05T19:19:28.532Z,3.40
2022-11-05T19:21:55.467Z,3.47
2022-11-05T19:24:22.772Z,3.57
2022-11-05T19:26:50.415Z,3.70
2022-11-05T19:29:17.487Z,3.47
2022-11-05T19:31:44.553Z,3.57
2022-11-05T19:34:13.315Z,3.40
2022-11-05T19:36:40.623Z,4.00
2022-11-05T19:39:09.125Z,3.50
2022-11-05T19:41:36.012Z,3.70
2022-11-05T19:44:03.522Z,3.33
2022-11-05T19:46:32.455Z,3.73
2022-11-05T19:49:02.398Z,3.60
2022-11-05T19:51:31.140Z,3.63
2022-11-05T19:54:00.982Z,3.50
2022-11-05T19:56:30.866Z,3.80
2022-11-05T19:58:58.751Z,3.40
2022-11-05T20:01:27.668Z,3.40
2022-11-05T20:03:55.802Z,4.10
2022-11-05T20:06:28.629Z,3.47
2022-11-05T20:09:20.622Z,4.07
2022-11-05T20:11:45.318Z,3.90
2022-11-05T20:14:12.135Z,3.77
2022-11-05T20:16:39.986Z,3.70
2022-11-05T20:19:09.761Z,3.70
2022-11-05T20:21:36.583Z,3.83
2022-11-05T20:24:03.844Z,3.77
2022-11-05T20:26:31.278Z,3.73
2022-11-05T20:28:58.073Z,3.40
2022-11-05T20:31:24.964Z,3.40
2022-11-05T20:33:52.340Z,3.33
2022-11-05T20:36:24.503Z,3.50
2022-11-05T20:38:55.123Z,3.60
2022-11-05T20:41:22.465Z,3.80
2022-11-05T20:43:49.475Z,3.57
2022-11-05T20:46:19.788Z,3.73
2022-11-05T20:48:47.053Z,4.20
2022-11-05T20:51:17.140Z,4.25
2022-11-05T20:53:45.165Z,3.70
2022-11-05T20:56:20.810Z,3.40
2022-11-05T20:58:47.668Z,3.60
2022-11-05T21:01:17.448Z,4.00
2022-11-05T21:03:45.739Z,3.73
2022-11-05T21:06:13.436Z,3.73
2022-11-05T21:08:40.393Z,4.77
2022-11-05T21:11:07.926Z,4.33
2022-11-05T21:13:35.948Z,4.10
2022-11-05T21:16:04.366Z,4.20
2022-11-05T21:18:33.373Z,4.60
2022-11-05T21:21:00.465Z,4.10
2022-11-05T21:23:28.607Z,4.70
2022-11-05T21:25:55.962Z,4.40
2022-11-05T21:28:23.306Z,4.43
2022-11-05T21:30:50.166Z,4.10
2022-11-05T21:33:19.114Z,4.50
2022-11-05T21:35:48.288Z,4.30
2022-11-05T21:38:17.305Z,4.47
2022-11-05T21:40:45.174Z,4.53
2022-11-05T21:43:12.734Z,4.37
2022-11-05T21:45:41.038Z,3.90
2022-11-05T21:48:08.890Z,4.97
2022-11-05T21:50:57.161Z,4.77
2022-11-05T21:53:42.693Z,4.40
2022-11-05T21:56:41.436Z,4.47
2022-11-05T21:59:33.621Z,3.90
2022-11-05T22:02:03.767Z,4.07
2022-11-05T22:04:32.946Z,4.27
2022-11-05T22:06:59.885Z,4.13
2022-11-05T22:09:27.592Z,5.10
2022-11-05T22:11:55.184Z,4.63
2022-11-05T22:14:24.028Z,4.60
2022-11-05T22:16:50.899Z,4.63
2022-11-05T22:19:17.964Z,4.73
2022-11-05T22:21:45.003Z,4.97
2022-11-05T22:24:11.913Z,4.87
2022-11-05T22:26:40.211Z,5.20
2022-11-05T22:29:07.665Z,4.57
2022-11-05T22:31:36.495Z,5.10
2022-11-05T22:34:04.510Z,4.33
2022-11-05T22:36:33.073Z,4.60
2022-11-05T22:39:00.236Z,4.50
2022-11-05T22:41:27.082Z,4.53
2022-11-05T22:43:53.993Z,4.57
2022-11-05T22:46:23.778Z,5.10
2022-11-05T22:48:51.380Z,5.10
2022-11-05T22:51:21.301Z,4.60
2022-11-05T22:53:48.926Z,5.07
2022-11-05T22:56:18.477Z,5.00
2022-11-05T22:58:45.476Z,4.80
2022-11-05T23:01:13.759Z,4.57
2022-11-05T23:03:43.090Z,5.13
2022-11-05T23:06:37.599Z,5.13
2022-11-05T23:09:25.558Z,5.07
2022-11-05T23:11:53.849Z,5.20
2022-11-05T23:14:20.860Z,4.80
2022-11-05T23:17:06.715Z,4.80
2022-11-05T23:19:52.320Z,4.90
2022-11-05T23:22:47.047Z,5.10
2022-11-05T23:25:17.218Z,4.80
2022-11-05T23:27:45.743Z,4.57
2022-11-05T23:30:21.599Z,4.77
2022-11-05T23:32:49.079Z,4.80
2022-11-05T23:35:16.465Z,4.77
2022-11-05T23:38:01.966Z,4.57
2022-11-05T23:40:31.029Z,4.87
2022-11-05T23:43:16.485Z,4.63
2022-11-05T23:46:02.878Z,4.80
2022-11-05T23:48:37.669Z,4.97
2022-11-05T23:51:07.078Z,4.97
2022-11-05T23:53:38.017Z,4.97
2022-11-05T23:56:08.256Z,5.20
2022-11-05T23:58:36.387Z,5.50
